Terminal Aerodrome Forecast
Issued by NWS State College, PA

Home | Current Version | Previous Version | Text Only | Print | Product List | Glossary On
Versions: 1 2 3 4 5 6 7 8 9 10 11 12 13 14 15 16 17 18 19 20 21 22 23 24 25 26 27 28 29 30 31 32 33
000
FTUS41 KCTP 270606 RRA
TAFIPT
TAF
KIPT 270606Z 2706/2806 28004KT P6SM FEW050
      TEMPO 2708/2711 5SM BR
     FM271500 27003KT P6SM VCSH OVC100
     FM272000 31004KT P6SM BKN050
     FM280300 VRB02KT P6SM VCFG SCT100=

USA.gov is the U.S. government's official web portal to all federal, state and local government web resources and services.